createdAt,value
2018-03-15T00:00:40.612Z,998.90
2018-03-15T00:01:40.602Z,998.85
2018-03-15T00:02:40.593Z,998.82
2018-03-15T00:03:40.583Z,998.81
2018-03-15T00:04:40.574Z,998.80
2018-03-15T00:05:40.565Z,998.77
2018-03-15T00:06:40.557Z,998.73
2018-03-15T00:07:40.549Z,998.76
2018-03-15T00:08:40.540Z,998.78
2018-03-15T00:09:40.532Z,998.72
2018-03-15T00:10:40.523Z,998.72
2018-03-15T00:11:40.518Z,998.74
2018-03-15T00:12:40.508Z,998.72
2018-03-15T00:13:40.501Z,998.71
2018-03-15T00:14:40.493Z,998.65
2018-03-15T00:15:40.482Z,998.65
2018-03-15T00:16:40.473Z,998.63
2018-03-15T00:17:40.463Z,998.65
2018-03-15T00:18:40.456Z,998.71
2018-03-15T00:19:40.450Z,998.63
2018-03-15T00:20:40.440Z,998.58
2018-03-15T00:21:40.433Z,998.57
2018-03-15T00:22:40.423Z,998.60
2018-03-15T00:23:40.417Z,998.53
2018-03-15T00:24:40.406Z,998.52
2018-03-15T00:25:40.398Z,998.49
2018-03-15T00:26:40.412Z,998.50
2018-03-15T00:27:40.380Z,998.48
2018-03-15T00:28:40.369Z,998.55
2018-03-15T00:29:40.361Z,998.50
2018-03-15T00:30:40.356Z,998.54
2018-03-15T00:31:40.352Z,998.51
2018-03-15T00:32:40.335Z,998.48
2018-03-15T00:33:40.327Z,998.46
2018-03-15T00:34:40.318Z,998.50
2018-03-15T00:35:40.313Z,998.49
2018-03-15T00:36:40.311Z,998.42
2018-03-15T00:37:40.296Z,998.43
2018-03-15T00:38:40.288Z,998.39
2018-03-15T00:39:40.339Z,998.37
2018-03-15T00:40:40.269Z,998.37
2018-03-15T00:41:40.260Z,998.34
2018-03-15T00:42:40.254Z,998.33
2018-03-15T00:43:40.241Z,998.34
2018-03-15T00:44:40.233Z,998.33
2018-03-15T00:45:40.224Z,998.36
2018-03-15T00:46:40.215Z,998.33
2018-03-15T00:47:40.207Z,998.25
2018-03-15T00:48:40.197Z,998.32
2018-03-15T00:49:40.189Z,998.26
2018-03-15T00:50:40.181Z,998.26
2018-03-15T00:51:40.174Z,998.22
2018-03-15T00:52:40.166Z,998.25
2018-03-15T00:53:40.158Z,998.29
2018-03-15T00:54:40.149Z,998.24
2018-03-15T00:55:40.140Z,998.24
2018-03-15T00:56:40.130Z,998.23
2018-03-15T00:57:40.122Z,998.15
2018-03-15T00:58:40.113Z,998.25
2018-03-15T00:59:40.104Z,998.22
2018-03-15T01:00:40.096Z,998.27
2018-03-15T01:01:40.085Z,998.24
2018-03-15T01:02:40.077Z,998.25
2018-03-15T01:03:40.069Z,998.29
2018-03-15T01:04:40.059Z,998.35
2018-03-15T01:05:40.054Z,998.36
2018-03-15T01:06:40.085Z,998.24
2018-03-15T01:07:40.038Z,998.21
2018-03-15T01:08:40.028Z,998.17
2018-03-15T01:09:40.018Z,998.13
2018-03-15T01:10:40.010Z,998.15
2018-03-15T01:11:40.001Z,998.15
2018-03-15T01:12:39.994Z,998.18
2018-03-15T01:13:39.983Z,998.13
2018-03-15T01:14:39.976Z,998.12
2018-03-15T01:15:39.964Z,998.07
2018-03-15T01:16:39.958Z,998.09
2018-03-15T01:17:39.946Z,998.08
2018-03-15T01:18:39.938Z,998.07
2018-03-15T01:19:39.929Z,998.08
2018-03-15T01:20:39.920Z,998.09
2018-03-15T01:21:39.914Z,998.07
2018-03-15T01:22:39.909Z,998.06
2018-03-15T01:23:39.897Z,998.09
2018-03-15T01:24:39.889Z,998.03
2018-03-15T01:25:39.880Z,998.05
2018-03-15T01:26:39.871Z,998.02
2018-03-15T01:27:39.862Z,997.98
2018-03-15T01:28:39.854Z,997.94
2018-03-15T01:29:39.847Z,997.94
2018-03-15T01:30:39.836Z,997.99
2018-03-15T01:31:39.825Z,997.95
2018-03-15T01:32:39.815Z,997.99
2018-03-15T01:33:39.807Z,997.92
2018-03-15T01:34:39.798Z,997.91
2018-03-15T01:35:39.790Z,997.86
2018-03-15T01:36:39.780Z,997.83
2018-03-15T01:37:39.772Z,997.90
2018-03-15T01:38:39.764Z,997.84
2018-03-15T01:39:39.757Z,997.85
2018-03-15T01:40:39.748Z,997.80
2018-03-15T01:41:39.738Z,997.74
2018-03-15T01:42:39.730Z,997.82
2018-03-15T01:43:39.722Z,997.77
2018-03-15T01:44:39.712Z,997.81
2018-03-15T01:45:39.705Z,997.84
2018-03-15T01:46:39.696Z,997.75
2018-03-15T01:47:39.685Z,997.72
2018-03-15T01:48:39.674Z,997.74
2018-03-15T01:49:39.667Z,997.75
2018-03-15T01:50:39.656Z,997.71
2018-03-15T01:51:39.648Z,997.66
2018-03-15T01:52:39.639Z,997.65
2018-03-15T01:53:39.631Z,997.65
2018-03-15T01:54:39.625Z,997.62
2018-03-15T01:55:39.616Z,997.66
2018-03-15T01:56:39.606Z,997.69
2018-03-15T01:57:39.598Z,997.63
2018-03-15T01:58:39.589Z,997.55
2018-03-15T01:59:39.581Z,997.59
2018-03-15T02:00:39.570Z,997.51
2018-03-15T02:01:39.562Z,997.54
2018-03-15T02:02:39.553Z,997.54
2018-03-15T02:03:39.542Z,997.59
2018-03-15T02:04:39.532Z,997.52
2018-03-15T02:05:39.523Z,997.45
2018-03-15T02:06:39.514Z,997.45
2018-03-15T02:07:39.505Z,997.44
2018-03-15T02:08:39.496Z,997.44
2018-03-15T02:09:39.487Z,997.36
2018-03-15T02:10:39.477Z,997.32
2018-03-15T02:11:39.473Z,997.33
2018-03-15T02:12:39.462Z,997.36
2018-03-15T02:13:39.457Z,997.32
2018-03-15T02:14:39.444Z,997.28
2018-03-15T02:15:39.436Z,997.35
2018-03-15T02:16:39.429Z,997.33
2018-03-15T02:17:39.417Z,997.29
2018-03-15T02:18:39.409Z,997.30
2018-03-15T02:19:39.397Z,997.30
2018-03-15T02:20:39.389Z,997.25
2018-03-15T02:21:39.379Z,997.19
2018-03-15T02:22:39.369Z,997.16
2018-03-15T02:23:39.363Z,997.21
2018-03-15T02:24:39.355Z,997.14
2018-03-15T02:25:39.347Z,997.14
2018-03-15T02:26:39.339Z,997.10
2018-03-15T02:27:39.325Z,997.16
2018-03-15T02:28:39.316Z,997.08
2018-03-15T02:29:39.306Z,997.13
2018-03-15T02:30:39.297Z,997.06
2018-03-15T02:31:39.288Z,997.11
2018-03-15T02:32:39.277Z,997.05
2018-03-15T02:33:39.270Z,997.03
2018-03-15T02:34:39.260Z,997.04
2018-03-15T02:35:39.254Z,997.02
2018-03-15T02:36:39.244Z,997.00
2018-03-15T02:37:39.236Z,996.91
2018-03-15T02:38:39.226Z,997.03
2018-03-15T02:39:39.217Z,996.97
2018-03-15T02:40:39.210Z,996.86
2018-03-15T02:41:39.200Z,996.87
2018-03-15T02:42:39.190Z,996.82
2018-03-15T02:43:39.178Z,996.84
2018-03-15T02:44:39.169Z,996.73
2018-03-15T02:45:39.161Z,996.72
2018-03-15T02:46:39.150Z,996.73
2018-03-15T02:47:39.142Z,996.68
2018-03-15T02:48:39.132Z,996.71
2018-03-15T02:49:39.123Z,996.66
2018-03-15T02:50:39.112Z,996.67
2018-03-15T02:51:39.108Z,996.66
2018-03-15T02:52:39.098Z,996.61
2018-03-15T02:53:39.088Z,996.63
2018-03-15T02:54:39.091Z,996.63
2018-03-15T02:55:39.077Z,996.63
2018-03-15T02:56:39.061Z,996.55
2018-03-15T02:57:39.051Z,996.55
2018-03-15T02:58:39.043Z,996.58
2018-03-15T02:59:39.032Z,996.64
2018-03-15T03:00:39.021Z,996.59
2018-03-15T03:01:39.012Z,996.52
2018-03-15T03:02:39.006Z,996.59
2018-03-15T03:03:38.994Z,996.64
2018-03-15T03:04:38.985Z,996.57
2018-03-15T03:05:38.975Z,996.59
2018-03-15T03:06:38.966Z,996.62
2018-03-15T03:07:38.960Z,996.53
2018-03-15T03:08:38.951Z,996.54
2018-03-15T03:09:38.941Z,996.57
2018-03-15T03:10:38.931Z,996.50
2018-03-15T03:11:38.922Z,996.47
2018-03-15T03:12:38.914Z,996.51
2018-03-15T03:13:38.905Z,996.51
2018-03-15T03:14:38.894Z,996.48
2018-03-15T03:15:38.883Z,996.60
2018-03-15T03:16:38.873Z,996.42
2018-03-15T03:17:38.864Z,996.48
2018-03-15T03:18:38.856Z,996.46
2018-03-15T03:19:38.845Z,996.43
2018-03-15T03:20:38.841Z,996.44
2018-03-15T03:21:38.826Z,996.43
2018-03-15T03:22:38.817Z,996.41
2018-03-15T03:23:38.811Z,996.35
2018-03-15T03:24:38.803Z,996.34
2018-03-15T03:25:38.791Z,996.36
2018-03-15T03:26:38.783Z,996.34
2018-03-15T03:27:38.774Z,996.35
2018-03-15T03:28:38.760Z,996.31
2018-03-15T03:29:38.752Z,996.35
2018-03-15T03:30:38.744Z,996.28
2018-03-15T03:31:38.737Z,996.30
2018-03-15T03:32:38.729Z,996.19
2018-03-15T03:33:38.721Z,996.23
2018-03-15T03:34:38.708Z,996.20
2018-03-15T03:35:38.699Z,996.19
2018-03-15T03:36:38.689Z,996.16
2018-03-15T03:37:38.679Z,996.09
2018-03-15T03:38:38.671Z,996.17
2018-03-15T03:39:38.659Z,996.12
2018-03-15T03:40:38.649Z,996.10
2018-03-15T03:41:38.640Z,996.09
2018-03-15T03:42:38.631Z,996.06
2018-03-15T03:43:38.622Z,996.03
2018-03-15T03:44:38.610Z,996.06
2018-03-15T03:45:38.603Z,996.14
2018-03-15T03:46:38.593Z,996.11
2018-03-15T03:47:38.591Z,996.17
2018-03-15T03:48:38.579Z,996.08
2018-03-15T03:49:38.567Z,996.04
2018-03-15T03:50:38.558Z,996.00
2018-03-15T03:51:38.549Z,996.05
2018-03-15T03:52:38.538Z,996.08
2018-03-15T03:53:38.533Z,996.19
2018-03-15T03:54:38.520Z,995.93
2018-03-15T03:55:38.509Z,996.01
2018-03-15T03:56:38.498Z,996.02
2018-03-15T03:57:38.489Z,995.89
2018-03-15T03:58:38.481Z,995.93
2018-03-15T03:59:38.475Z,995.84
2018-03-15T04:00:38.461Z,995.91
2018-03-15T04:01:38.452Z,995.85
2018-03-15T04:02:38.441Z,995.80
2018-03-15T04:03:38.437Z,995.81
2018-03-15T04:04:38.426Z,995.75
2018-03-15T04:05:38.416Z,995.85
2018-03-15T04:06:38.407Z,995.80
2018-03-15T04:07:38.398Z,995.73
2018-03-15T04:08:38.387Z,995.81
2018-03-15T04:09:38.379Z,995.68
2018-03-15T04:10:38.370Z,995.71
2018-03-15T04:11:38.361Z,995.83
2018-03-15T04:12:38.347Z,995.69
2018-03-15T04:13:38.339Z,995.69
2018-03-15T04:14:38.330Z,995.61
2018-03-15T04:15:38.320Z,995.69
2018-03-15T04:16:38.312Z,995.65
2018-03-15T04:17:38.301Z,995.61
2018-03-15T04:18:38.291Z,995.67
2018-03-15T04:19:38.285Z,995.61
2018-03-15T04:20:38.276Z,995.57
2018-03-15T04:21:38.266Z,995.55
2018-03-15T04:22:38.257Z,995.46
2018-03-15T04:23:38.249Z,995.44
2018-03-15T04:24:38.237Z,995.56
2018-03-15T04:25:38.231Z,995.38
2018-03-15T04:26:38.218Z,995.36
2018-03-15T04:27:38.207Z,995.22
2018-03-15T04:28:38.200Z,995.33
2018-03-15T04:29:38.187Z,995.18
2018-03-15T04:30:38.178Z,995.25
2018-03-15T04:31:38.172Z,995.28
2018-03-15T04:32:38.161Z,995.51
2018-03-15T04:33:38.153Z,995.26
2018-03-15T04:34:38.147Z,995.20
2018-03-15T04:35:38.131Z,995.24
2018-03-15T04:36:38.120Z,995.14
2018-03-15T04:37:38.110Z,995.13
2018-03-15T04:38:38.102Z,995.06
2018-03-15T04:39:38.093Z,995.11
2018-03-15T04:40:38.083Z,995.10
2018-03-15T04:41:38.072Z,995.33
2018-03-15T04:42:38.064Z,995.11
2018-03-15T04:43:38.057Z,995.05
2018-03-15T04:44:38.047Z,995.09
2018-03-15T04:45:38.039Z,995.06
2018-03-15T04:46:38.031Z,995.10
2018-03-15T04:47:38.032Z,995.04
2018-03-15T04:48:38.010Z,994.97
2018-03-15T04:49:38.000Z,995.06
2018-03-15T04:50:37.990Z,995.00
2018-03-15T04:51:37.978Z,994.92
2018-03-15T04:52:37.968Z,994.98
2018-03-15T04:53:37.959Z,994.93
2018-03-15T04:54:37.950Z,995.05
2018-03-15T04:55:37.941Z,994.97
2018-03-15T04:56:37.932Z,995.01
2018-03-15T04:57:37.921Z,994.92
2018-03-15T04:58:37.912Z,994.84
2018-03-15T04:59:37.904Z,994.98
2018-03-15T05:00:37.895Z,994.88
2018-03-15T05:01:37.886Z,994.92
2018-03-15T05:02:37.876Z,994.99
2018-03-15T05:03:37.866Z,994.96
2018-03-15T05:04:37.855Z,994.91
2018-03-15T05:05:37.847Z,994.88
2018-03-15T05:06:37.838Z,994.80
2018-03-15T05:07:37.827Z,994.76
2018-03-15T05:08:37.816Z,994.80
2018-03-15T05:09:37.806Z,994.76
2018-03-15T05:10:37.798Z,994.60
2018-03-15T05:11:37.802Z,994.71
2018-03-15T05:12:37.815Z,994.60
2018-03-15T05:13:37.768Z,994.72
2018-03-15T05:14:37.758Z,994.71
2018-03-15T05:15:37.752Z,994.61
2018-03-15T05:16:37.742Z,994.57
2018-03-15T05:17:37.736Z,994.67
2018-03-15T05:18:37.723Z,994.59
2018-03-15T05:19:37.715Z,994.67
2018-03-15T05:20:37.708Z,994.52
2018-03-15T05:21:37.694Z,994.51
2018-03-15T05:22:37.685Z,994.52
2018-03-15T05:23:37.673Z,994.54
2018-03-15T05:24:37.666Z,994.57
2018-03-15T05:25:37.654Z,994.51
2018-03-15T05:26:37.645Z,994.52
2018-03-15T05:27:37.635Z,994.53
2018-03-15T05:28:37.628Z,994.49
2018-03-15T05:29:37.620Z,994.48
2018-03-15T05:30:37.606Z,994.40
2018-03-15T05:31:37.599Z,994.38
2018-03-15T05:32:37.590Z,994.43
2018-03-15T05:33:37.581Z,994.43
2018-03-15T05:34:37.571Z,994.47
2018-03-15T05:35:37.560Z,994.40
2018-03-15T05:36:37.551Z,994.40
2018-03-15T05:37:37.541Z,994.37
2018-03-15T05:38:37.529Z,994.29
2018-03-15T05:39:37.524Z,994.30
2018-03-15T05:40:37.513Z,994.30
2018-03-15T05:41:37.506Z,994.30
2018-03-15T05:42:37.495Z,994.41
2018-03-15T05:43:37.486Z,994.34
2018-03-15T05:44:37.476Z,994.33
2018-03-15T05:45:37.466Z,994.38
2018-03-15T05:46:37.458Z,994.40
2018-03-15T05:47:37.448Z,994.34
2018-03-15T05:48:37.435Z,994.45
2018-03-15T05:49:37.431Z,994.43
2018-03-15T05:50:37.417Z,994.50
2018-03-15T05:51:37.408Z,994.41
2018-03-15T05:52:37.398Z,994.50
2018-03-15T05:53:37.389Z,994.39
2018-03-15T05:54:37.379Z,994.44
2018-03-15T05:55:37.375Z,994.44
2018-03-15T05:56:37.365Z,994.44
2018-03-15T05:57:37.354Z,994.45
2018-03-15T05:58:37.350Z,994.52
2018-03-15T05:59:37.337Z,994.47
2018-03-15T06:00:37.329Z,994.41
2018-03-15T06:01:37.317Z,994.39
2018-03-15T06:02:37.309Z,994.41
2018-03-15T06:03:37.297Z,994.40
2018-03-15T06:04:37.287Z,994.37
2018-03-15T06:05:37.278Z,994.28
2018-03-15T06:06:37.269Z,994.34
2018-03-15T06:07:37.277Z,994.29
2018-03-15T06:08:37.250Z,994.37
2018-03-15T06:09:37.241Z,994.30
2018-03-15T06:10:37.232Z,994.37
2018-03-15T06:11:37.225Z,994.45
2018-03-15T06:12:37.216Z,994.47
2018-03-15T06:13:37.206Z,994.59
2018-03-15T06:14:37.199Z,994.48
2018-03-15T06:15:37.190Z,994.60
2018-03-15T06:16:37.179Z,994.65
2018-03-15T06:17:37.171Z,994.61
2018-03-15T06:18:37.162Z,994.71
2018-03-15T06:19:37.152Z,994.60
2018-03-15T06:20:37.143Z,994.46
2018-03-15T06:21:37.134Z,994.49
2018-03-15T06:22:37.126Z,994.50
2018-03-15T06:23:37.119Z,994.48
2018-03-15T06:24:37.110Z,994.60
2018-03-15T06:25:37.103Z,994.56
2018-03-15T06:26:37.096Z,994.51
2018-03-15T06:27:37.091Z,994.51
2018-03-15T06:28:37.086Z,994.60
2018-03-15T06:29:37.076Z,994.58
2018-03-15T06:30:37.068Z,994.67
2018-03-15T06:31:37.061Z,994.60
2018-03-15T06:32:37.055Z,994.57
2018-03-15T06:33:37.047Z,994.54
2018-03-15T06:34:37.041Z,994.59
2018-03-15T06:35:37.031Z,994.65
2018-03-15T06:36:37.023Z,994.67
2018-03-15T06:37:37.017Z,994.76
2018-03-15T06:38:37.011Z,994.77
2018-03-15T06:39:37.006Z,994.78
2018-03-15T06:40:37.000Z,994.84
2018-03-15T06:41:36.993Z,994.98
2018-03-15T06:42:36.987Z,995.11
2018-03-15T06:43:36.980Z,994.93
2018-03-15T06:44:36.972Z,994.86
2018-03-15T06:45:36.967Z,994.84
2018-03-15T06:46:36.962Z,994.93
2018-03-15T06:47:36.956Z,995.12
2018-03-15T06:48:36.951Z,995.15
2018-03-15T06:49:36.950Z,995.29
2018-03-15T06:50:36.942Z,995.23
2018-03-15T06:51:36.941Z,995.32
2018-03-15T06:52:36.935Z,995.32
2018-03-15T06:53:36.930Z,995.29
2018-03-15T06:54:36.927Z,995.37
2018-03-15T06:55:36.924Z,995.23
2018-03-15T06:56:36.919Z,995.32
2018-03-15T06:57:36.916Z,995.38
2018-03-15T06:58:36.913Z,995.39
2018-03-15T06:59:36.907Z,995.41
2018-03-15T07:00:36.904Z,995.42
2018-03-15T07:01:36.905Z,995.38
2018-03-15T07:02:36.899Z,995.40
2018-03-15T07:03:36.899Z,995.33
2018-03-15T07:04:36.893Z,995.41
2018-03-15T07:05:36.892Z,995.49
2018-03-15T07:06:36.891Z,995.37
2018-03-15T07:07:36.892Z,995.33
2018-03-15T07:08:36.889Z,995.21
2018-03-15T07:09:36.888Z,995.25
2018-03-15T07:10:36.889Z,995.35
2018-03-15T07:11:36.887Z,995.50
2018-03-15T07:12:36.885Z,995.58
2018-03-15T07:13:36.886Z,995.50
2018-03-15T07:14:36.885Z,995.51
2018-03-15T07:15:36.882Z,995.49
2018-03-15T07:16:36.929Z,995.41
2018-03-15T07:17:36.881Z,995.46
2018-03-15T07:18:36.882Z,995.54
2018-03-15T07:19:36.882Z,995.69
2018-03-15T07:20:36.882Z,995.49
2018-03-15T07:21:36.884Z,995.57
2018-03-15T07:22:36.885Z,995.41
2018-03-15T07:23:36.888Z,995.47
2018-03-15T07:24:36.888Z,995.41
2018-03-15T07:25:36.890Z,995.34
2018-03-15T07:26:36.892Z,995.31
2018-03-15T07:27:36.892Z,995.07
2018-03-15T07:28:36.893Z,995.17
2018-03-15T07:29:36.894Z,994.97
2018-03-15T07:30:36.896Z,995.01
2018-03-15T07:31:36.895Z,995.02
2018-03-15T07:32:36.903Z,995.48
2018-03-15T07:33:36.897Z,995.48
2018-03-15T07:34:36.902Z,995.49
2018-03-15T07:35:36.900Z,995.49
2018-03-15T07:36:36.901Z,995.58
2018-03-15T07:37:36.903Z,995.67
2018-03-15T07:38:36.904Z,995.67
2018-03-15T07:39:36.911Z,995.74
2018-03-15T07:40:36.912Z,995.81
2018-03-15T07:41:36.913Z,995.65
2018-03-15T07:42:36.916Z,995.73
2018-03-15T07:43:36.917Z,995.75
2018-03-15T07:44:36.920Z,995.79
2018-03-15T07:45:36.922Z,995.71
2018-03-15T07:46:36.925Z,995.90
2018-03-15T07:47:36.933Z,995.74
2018-03-15T07:48:36.935Z,995.77
2018-03-15T07:49:36.939Z,995.72
2018-03-15T07:50:36.942Z,995.88
2018-03-15T07:51:36.947Z,995.76
2018-03-15T07:52:36.950Z,995.81
2018-03-15T07:53:36.958Z,995.25
2018-03-15T07:54:36.958Z,995.35
2018-03-15T07:55:36.961Z,995.62
2018-03-15T07:56:36.964Z,995.69
2018-03-15T07:57:36.970Z,995.69
2018-03-15T07:58:36.973Z,995.65
2018-03-15T07:59:36.981Z,995.63
2018-03-15T08:00:36.987Z,995.68
2018-03-15T08:01:36.985Z,995.66
2018-03-15T08:02:36.991Z,995.70
2018-03-15T08:03:36.998Z,995.57
2018-03-15T08:04:37.002Z,995.58
2018-03-15T08:05:37.007Z,995.50
2018-03-15T08:06:37.013Z,995.43
2018-03-15T08:07:37.020Z,995.47
2018-03-15T08:08:37.022Z,994.79
2018-03-15T08:09:37.027Z,994.75
2018-03-15T08:10:37.032Z,994.72
2018-03-15T08:11:37.035Z,994.82
2018-03-15T08:12:37.039Z,994.76
2018-03-15T08:13:37.045Z,994.79
2018-03-15T08:14:37.075Z,994.76
2018-03-15T08:15:37.056Z,994.73
2018-03-15T08:16:37.059Z,994.68
2018-03-15T08:17:37.064Z,994.69
2018-03-15T08:18:37.068Z,994.65
2018-03-15T08:19:37.077Z,994.66
2018-03-15T08:20:37.111Z,994.62
2018-03-15T08:21:37.087Z,994.70
2018-03-15T08:22:37.092Z,994.65
2018-03-15T08:23:37.100Z,994.79
2018-03-15T08:24:37.101Z,994.73
2018-03-15T08:25:37.107Z,994.49
2018-03-15T08:26:37.114Z,994.54
2018-03-15T08:27:37.116Z,994.53
2018-03-15T08:28:37.117Z,994.56
2018-03-15T08:29:37.121Z,994.58
2018-03-15T08:30:37.124Z,994.46
2018-03-15T08:31:37.131Z,994.52
2018-03-15T08:32:37.133Z,994.49
2018-03-15T08:33:37.138Z,994.44
2018-03-15T08:34:37.144Z,994.47
2018-03-15T08:35:37.152Z,994.56
2018-03-15T08:36:37.156Z,994.44
2018-03-15T08:37:37.164Z,994.34
2018-03-15T08:38:37.164Z,994.43
2018-03-15T08:39:37.193Z,994.38
2018-03-15T08:40:37.182Z,994.31
2018-03-15T08:41:37.176Z,994.47
2018-03-15T08:42:37.180Z,994.45
2018-03-15T08:43:37.180Z,994.41
2018-03-15T08:44:37.183Z,994.39
2018-03-15T08:45:37.187Z,994.43
2018-03-15T08:46:37.190Z,994.39
2018-03-15T08:47:37.198Z,994.31
2018-03-15T08:48:37.209Z,994.24
2018-03-15T08:49:37.206Z,994.41
2018-03-15T08:50:37.210Z,994.39
2018-03-15T08:51:37.212Z,994.44
2018-03-15T08:52:37.215Z,994.42
2018-03-15T08:53:37.218Z,994.36
2018-03-15T08:54:37.228Z,994.42
2018-03-15T08:55:37.226Z,994.34
2018-03-15T08:56:37.272Z,994.41
2018-03-15T08:57:37.246Z,994.33
2018-03-15T08:58:37.238Z,994.39
2018-03-15T08:59:37.246Z,994.38
2018-03-15T09:00:37.249Z,994.31
2018-03-15T09:01:37.255Z,994.40
2018-03-15T09:02:37.267Z,994.38
2018-03-15T09:03:37.264Z,994.32
2018-03-15T09:04:37.806Z,994.26
2018-03-15T09:05:37.272Z,994.29
2018-03-15T09:06:37.278Z,994.25
2018-03-15T09:07:37.278Z,994.31
2018-03-15T09:08:37.340Z,994.32
2018-03-15T09:09:37.287Z,994.29
2018-03-15T09:10:37.293Z,994.27
2018-03-15T09:11:37.298Z,994.16
2018-03-15T09:12:37.302Z,994.22
2018-03-15T09:13:37.309Z,994.31
2018-03-15T09:14:37.314Z,994.20
2018-03-15T09:15:37.323Z,994.24
2018-03-15T09:16:37.328Z,994.30
2018-03-15T09:17:37.338Z,994.22
2018-03-15T09:18:37.341Z,994.23
2018-03-15T09:19:37.345Z,994.18
2018-03-15T09:20:37.351Z,994.12
2018-03-15T09:21:37.358Z,994.15
2018-03-15T09:22:37.362Z,994.18
2018-03-15T09:23:37.409Z,994.10
2018-03-15T09:24:37.370Z,994.14
2018-03-15T09:25:37.376Z,994.07
2018-03-15T09:26:37.383Z,994.12
2018-03-15T09:27:37.390Z,994.16
2018-03-15T09:28:37.416Z,994.11
2018-03-15T09:29:37.400Z,994.15
2018-03-15T09:30:37.406Z,994.13
2018-03-15T09:31:37.417Z,994.05
2018-03-15T09:32:37.422Z,994.01
2018-03-15T09:33:37.429Z,994.01
2018-03-15T09:34:37.440Z,993.98
2018-03-15T09:35:37.442Z,993.97
2018-03-15T09:36:37.448Z,993.93
2018-03-15T09:37:37.458Z,993.87
2018-03-15T09:38:37.462Z,993.96
2018-03-15T09:39:37.466Z,993.83
2018-03-15T09:40:37.537Z,993.81
2018-03-15T09:41:37.479Z,993.82
2018-03-15T09:42:37.482Z,993.78
2018-03-15T09:43:37.490Z,993.65
2018-03-15T09:44:37.495Z,993.76
2018-03-15T09:45:37.503Z,993.69
2018-03-15T09:46:37.506Z,993.72
2018-03-15T09:47:37.518Z,993.75
2018-03-15T09:48:37.520Z,993.71
2018-03-15T09:49:37.527Z,993.76
2018-03-15T09:50:37.532Z,993.75
2018-03-15T09:51:37.537Z,993.76
2018-03-15T09:52:37.543Z,993.83
2018-03-15T09:53:37.547Z,993.77
2018-03-15T09:54:37.552Z,993.81
2018-03-15T09:55:37.555Z,993.73
2018-03-15T09:56:37.559Z,993.72
2018-03-15T09:57:37.564Z,993.72
2018-03-15T09:58:37.570Z,993.70
2018-03-15T09:59:37.576Z,993.85
2018-03-15T10:00:37.580Z,993.85
2018-03-15T10:01:37.586Z,993.80
2018-03-15T10:02:37.594Z,993.67
2018-03-15T10:03:37.602Z,993.68
2018-03-15T10:04:37.609Z,993.74
2018-03-15T10:05:37.613Z,993.62
2018-03-15T10:06:37.619Z,993.56
2018-03-15T10:07:37.625Z,993.53
2018-03-15T10:08:37.630Z,993.50
2018-03-15T10:09:37.634Z,993.51
2018-03-15T10:10:37.641Z,993.49
2018-03-15T10:11:37.644Z,993.47
2018-03-15T10:12:37.649Z,993.45
2018-03-15T10:13:37.654Z,993.47
2018-03-15T10:14:37.662Z,993.46
2018-03-15T10:15:37.666Z,993.55
2018-03-15T10:16:37.674Z,993.44
2018-03-15T10:17:37.675Z,993.47
2018-03-15T10:18:37.687Z,993.48
2018-03-15T10:19:37.694Z,993.47
2018-03-15T10:20:37.696Z,993.45
2018-03-15T10:21:37.702Z,993.47
2018-03-15T10:22:37.708Z,993.43
2018-03-15T10:23:37.715Z,993.37
2018-03-15T10:24:37.720Z,993.42
2018-03-15T10:25:37.726Z,993.37
2018-03-15T10:26:37.733Z,993.35
2018-03-15T10:27:37.737Z,993.28
2018-03-15T10:28:37.742Z,993.27
2018-03-15T10:29:37.749Z,993.27
2018-03-15T10:30:37.755Z,993.22
2018-03-15T10:31:37.761Z,993.30
2018-03-15T10:32:37.768Z,993.35
2018-03-15T10:33:37.776Z,993.17
2018-03-15T10:34:37.779Z,993.11
2018-03-15T10:35:37.789Z,993.15
2018-03-15T10:36:37.794Z,993.25
2018-03-15T10:37:37.801Z,993.22
2018-03-15T10:38:37.808Z,993.16
2018-03-15T10:39:37.812Z,993.13
2018-03-15T10:40:37.816Z,993.17
2018-03-15T10:41:37.821Z,993.11
2018-03-15T10:42:37.828Z,993.15
2018-03-15T10:43:37.828Z,993.13
2018-03-15T10:44:37.831Z,993.04
2018-03-15T10:45:37.836Z,993.09
2018-03-15T10:46:37.842Z,993.07
2018-03-15T10:47:37.846Z,993.05
2018-03-15T10:48:37.849Z,992.98
2018-03-15T10:49:37.852Z,992.91
2018-03-15T10:50:37.857Z,992.97
2018-03-15T10:51:37.865Z,992.93
2018-03-15T10:52:37.868Z,992.85
2018-03-15T10:53:37.886Z,992.92
2018-03-15T10:54:37.876Z,992.91
2018-03-15T10:55:37.876Z,992.86
2018-03-15T10:56:37.876Z,992.89
2018-03-15T10:57:37.880Z,992.86
2018-03-15T10:58:37.883Z,992.98
2018-03-15T10:59:37.889Z,992.84
2018-03-15T11:00:37.892Z,992.81
2018-03-15T11:01:37.897Z,992.76
2018-03-15T11:02:37.896Z,992.84
2018-03-15T11:03:37.899Z,992.77
2018-03-15T11:04:37.901Z,992.81
2018-03-15T11:05:37.904Z,992.79
2018-03-15T11:06:37.906Z,992.76
2018-03-15T11:07:37.905Z,992.68
2018-03-15T11:08:37.907Z,992.69
2018-03-15T11:09:37.908Z,992.70
2018-03-15T11:10:37.910Z,992.71
2018-03-15T11:11:37.912Z,992.65
2018-03-15T11:12:37.913Z,992.71
2018-03-15T11:13:37.915Z,992.63
2018-03-15T11:14:37.918Z,992.62
2018-03-15T11:15:37.922Z,992.61
2018-03-15T11:16:37.926Z,992.63
2018-03-15T11:17:37.924Z,992.60
2018-03-15T11:18:37.925Z,992.62
2018-03-15T11:19:37.926Z,992.60
2018-03-15T11:20:37.927Z,992.63
2018-03-15T11:21:37.929Z,992.63
2018-03-15T11:22:37.930Z,992.63
2018-03-15T11:23:37.927Z,992.53
2018-03-15T11:24:37.927Z,992.52
2018-03-15T11:25:37.927Z,992.61
2018-03-15T11:26:37.928Z,992.57
2018-03-15T11:27:37.928Z,992.53
2018-03-15T11:28:37.929Z,992.52
2018-03-15T11:29:37.930Z,992.48
2018-03-15T11:30:37.929Z,992.40
2018-03-15T11:31:37.934Z,992.46
2018-03-15T11:32:37.934Z,992.36
2018-03-15T11:33:37.934Z,992.46
2018-03-15T11:34:37.934Z,992.42
2018-03-15T11:35:37.934Z,992.48
2018-03-15T11:36:37.935Z,992.45
2018-03-15T11:37:37.934Z,992.44
2018-03-15T11:38:37.999Z,992.49
2018-03-15T11:39:37.931Z,992.38
2018-03-15T11:40:37.930Z,992.39
2018-03-15T11:41:37.929Z,992.35
2018-03-15T11:42:37.930Z,992.45
2018-03-15T11:43:37.928Z,992.42
2018-03-15T11:44:37.928Z,992.38
2018-03-15T11:45:37.928Z,992.41
2018-03-15T11:46:37.927Z,992.43
2018-03-15T11:47:37.930Z,992.43
2018-03-15T11:48:37.928Z,992.36
2018-03-15T11:49:37.928Z,992.36
2018-03-15T11:50:37.975Z,992.31
2018-03-15T11:51:37.928Z,992.30
2018-03-15T11:52:37.928Z,992.29
2018-03-15T11:53:37.926Z,992.34
2018-03-15T11:54:37.932Z,992.34
2018-03-15T11:55:37.922Z,992.41
2018-03-15T11:56:37.925Z,992.42
2018-03-15T11:57:37.920Z,992.37
2018-03-15T11:58:37.919Z,992.33
2018-03-15T11:59:37.928Z,992.29
2018-03-15T12:00:37.944Z,992.33
2018-03-15T12:01:37.944Z,992.30
2018-03-15T12:02:37.924Z,992.30
2018-03-15T12:03:37.919Z,992.27
2018-03-15T12:04:37.918Z,992.15
2018-03-15T12:05:37.918Z,992.13
2018-03-15T12:06:37.919Z,992.23
2018-03-15T12:07:37.991Z,992.15
2018-03-15T12:08:37.917Z,992.19
2018-03-15T12:09:37.917Z,992.20
2018-03-15T12:10:37.916Z,992.30
2018-03-15T12:11:37.921Z,992.20
2018-03-15T12:12:37.919Z,992.19
2018-03-15T12:13:37.919Z,992.20
2018-03-15T12:14:37.919Z,992.16
2018-03-15T12:15:37.918Z,992.20
2018-03-15T12:16:37.917Z,992.12
2018-03-15T12:17:37.920Z,992.17
2018-03-15T12:18:37.917Z,992.20
2018-03-15T12:19:37.913Z,992.20
2018-03-15T12:20:37.912Z,992.20
2018-03-15T12:21:37.911Z,992.18
2018-03-15T12:22:37.910Z,992.21
2018-03-15T12:23:37.911Z,992.22
2018-03-15T12:24:37.910Z,992.22
2018-03-15T12:25:37.908Z,992.26
2018-03-15T12:26:37.908Z,992.26
2018-03-15T12:27:37.910Z,992.22
2018-03-15T12:28:37.909Z,992.20